Weather at Haga Airfield

Public forecast

Using degrees Celsius for public forecast. Weather courtesy of forecast.io.

Closest aviation weather report (METAR) to Haga Airfield

Closest report is Oslo Gardermoen Airport, 13.4 nm (24.7 km) NW. Retrieved 2021/04/12 00:20 UTC (30 minutes ago):

ENGM 120020Z 36010KT 8000 -SN BKN005 00/M00 Q1013

Closest aviation forecast (TAF) to Haga Airfield

Closest forecast is Oslo Gardermoen Airport, 13.4 nm (24.7 km) NW. Retrieved 2021-04-12 00:57 UTC (0 seconds ago):

TAF ENGM 112300Z 1200/1224 04012KT 8000 -SNRA SCT008 BKN015 TEMPO 1200/1215 1200 SN VV004 TEMPO 1215/1224 1200 SHSN BKN008 FEW020CB